Time;durP1;ratioP1;P1;durP2;ratioP2;P2;SDS_P1;SDS_P2;PMS_P1;PMS_P2;Temp;Humidity;BMP_temperature;BMP_pressure;BME280_temperature;BME280_humidity;BME280_pressure;Samples;Min_cycle;Max_cycle;Signal;HPM_P1;HPM_P2
2023/04/12 00:02:02;;;;;;;1.77;0.52;;;17.90;66.10;;;;;;4891552;29;45244;-72
2023/04/12 00:04:33;;;;;;;1.27;0.60;;;18.00;66.30;;;;;;4891729;29;45242;-72
2023/04/12 00:06:59;;;;;;;0.95;0.50;;;18.00;66.10;;;;;;4891014;29;46429;-72
2023/04/12 00:09:29;;;;;;;2.15;0.90;;;18.00;66.10;;;;;;4891047;29;45887;-72
2023/04/12 00:11:56;;;;;;;2.67;0.75;;;18.00;66.20;;;;;;4891408;29;45271;-72
2023/04/12 00:14:23;;;;;;;0.88;0.50;;;18.00;66.30;;;;;;4891460;29;45132;-72
2023/04/12 00:16:51;;;;;;;0.65;0.55;;;18.00;66.30;;;;;;4890930;29;47321;-72
2023/04/12 00:19:18;;;;;;;1.02;0.47;;;18.00;66.20;;;;;;4891145;29;45396;-72
2023/04/12 00:21:45;;;;;;;1.17;0.45;;;18.00;66.30;;;;;;4891278;29;45350;-72
2023/04/12 00:24:12;;;;;;;2.03;0.50;;;18.00;66.10;;;;;;4893836;29;45278;-72
2023/04/12 00:26:39;;;;;;;2.63;0.90;;;18.00;66.20;;;;;;4897106;29;46568;-72
2023/04/12 00:29:05;;;;;;;1.00;0.38;;;18.00;66.00;;;;;;4909832;29;45223;-72
2023/04/12 00:31:32;;;;;;;2.47;0.70;;;18.00;66.10;;;;;;4909938;29;45387;-72
2023/04/12 00:34:00;;;;;;;2.08;0.60;;;18.00;66.10;;;;;;4900876;29;45175;-72
2023/04/12 00:36:27;;;;;;;2.58;0.60;;;18.00;66.10;;;;;;4890378;29;46322;-72
2023/04/12 00:38:54;;;;;;;3.22;0.75;;;17.90;66.10;;;;;;4890774;29;45243;-72
2023/04/12 00:41:23;;;;;;;2.17;0.70;;;17.90;66.20;;;;;;4890926;29;45159;-72
2023/04/12 00:43:50;;;;;;;0.82;0.52;;;17.90;66.30;;;;;;4890935;29;45697;-72
2023/04/12 00:46:18;;;;;;;2.08;0.55;;;17.90;66.20;;;;;;4890533;29;46782;-72
2023/04/12 00:48:46;;;;;;;1.42;0.60;;;18.00;66.50;;;;;;4890585;29;45400;-72
2023/04/12 00:51:16;;;;;;;1.50;0.60;;;18.00;66.40;;;;;;4890558;29;45350;-72
2023/04/12 00:53:44;;;;;;;2.35;0.50;;;18.00;66.50;;;;;;4891121;29;45597;-72
2023/04/12 00:56:11;;;;;;;1.15;0.60;;;18.00;66.30;;;;;;4890128;29;46471;-72
2023/04/12 00:58:38;;;;;;;2.42;0.60;;;18.00;66.40;;;;;;4890671;29;45313;-72
2023/04/12 01:01:05;;;;;;;1.55;0.57;;;18.00;66.50;;;;;;4890564;29;45312;-72
2023/04/12 01:03:32;;;;;;;1.42;0.30;;;18.00;66.50;;;;;;4890537;29;45368;-72
2023/04/12 01:06:09;;;;;;;2.78;0.80;;;18.00;66.50;;;;;;4907308;29;45216;-72
2023/04/12 01:08:46;;;;;;;1.67;0.68;;;18.00;66.40;;;;;;4909138;29;45255;-72
2023/04/12 01:11:18;;;;;;;1.40;0.50;;;18.00;66.30;;;;;;4909026;29;45185;-72
2023/04/12 01:13:52;;;;;;;1.52;0.70;;;18.00;66.30;;;;;;4909438;29;45376;-72
2023/04/12 01:16:27;;;;;;;1.58;0.68;;;17.90;66.30;;;;;;4909290;29;45353;-72
2023/04/12 01:18:58;;;;;;;1.42;0.70;;;18.00;66.30;;;;;;4908985;29;45736;-72
2023/04/12 01:21:35;;;;;;;2.00;0.60;;;17.90;66.30;;;;;;4909336;29;45133;-72
2023/04/12 01:24:20;;;;;;;1.95;0.60;;;17.90;65.90;;;;;;4906529;29;45156;-72
2023/04/12 01:26:50;;;;;;;1.48;0.60;;;17.90;66.00;;;;;;4906197;29;46557;-72
2023/04/12 01:29:21;;;;;;;1.88;0.57;;;17.90;66.10;;;;;;4909015;29;45223;-72
2023/04/12 01:31:52;;;;;;;0.88;0.40;;;17.90;66.10;;;;;;4906352;29;45351;-72
2023/04/12 01:34:21;;;;;;;2.72;0.63;;;17.90;66.30;;;;;;4908990;29;45337;-72
2023/04/12 01:36:50;;;;;;;2.63;0.70;;;17.90;66.40;;;;;;4908680;29;45249;-72
2023/04/12 01:39:16;;;;;;;1.40;0.63;;;17.90;66.30;;;;;;4908533;29;45314;-72
2023/04/12 01:41:44;;;;;;;3.45;0.57;;;17.90;66.40;;;;;;4908831;29;45222;-72
2023/04/12 01:44:13;;;;;;;0.43;0.40;;;17.90;66.40;;;;;;4909100;28;45443;-72
2023/04/12 01:46:43;;;;;;;1.20;0.57;;;17.90;66.40;;;;;;4908539;29;48264;-72
2023/04/12 01:49:11;;;;;;;3.45;0.80;;;17.90;66.40;;;;;;4908808;29;45918;-72
2023/04/12 01:51:48;;;;;;;0.55;0.30;;;17.90;66.40;;;;;;4908802;29;45220;-72
2023/04/12 01:54:21;;;;;;;1.83;0.73;;;17.90;66.40;;;;;;4908975;29;45210;-72
2023/04/12 01:56:57;;;;;;;1.80;0.40;;;17.90;66.40;;;;;;4908434;29;47896;-72
2023/04/12 01:59:28;;;;;;;2.00;0.50;;;17.90;66.30;;;;;;4908533;29;46248;-72
2023/04/12 02:01:56;;;;;;;3.05;0.50;;;17.90;66.20;;;;;;4908772;29;45151;-72
2023/04/12 02:04:26;;;;;;;1.33;0.55;;;17.90;66.10;;;;;;4908883;29;45718;-72
2023/04/12 02:06:53;;;;;;;0.82;0.40;;;17.90;66.10;;;;;;4908412;29;46288;-71
2023/04/12 02:09:21;;;;;;;1.23;0.70;;;17.90;66.10;;;;;;4908757;29;45198;-72
2023/04/12 02:11:48;;;;;;;1.42;0.52;;;17.90;66.20;;;;;;4908868;28;45131;-72
2023/04/12 02:14:15;;;;;;;0.30;0.30;;;17.90;66.10;;;;;;4908671;29;45392;-72
2023/04/12 02:16:43;;;;;;;2.88;0.43;;;17.90;66.10;;;;;;4908422;29;45309;-72
2023/04/12 02:19:11;;;;;;;0.47;0.40;;;17.90;66.00;;;;;;4908366;29;45243;-72
2023/04/12 02:21:41;;;;;;;4.22;0.80;;;17.90;66.20;;;;;;4908386;29;45087;-72
2023/04/12 02:24:08;;;;;;;1.23;0.50;;;17.90;66.20;;;;;;4909960;29;45219;-72
2023/04/12 02:26:36;;;;;;;1.20;0.40;;;17.90;66.20;;;;;;4911806;28;46678;-72
2023/04/12 02:29:03;;;;;;;0.70;0.20;;;17.90;66.30;;;;;;4911637;28;45638;-72
2023/04/12 02:31:30;;;;;;;0.52;0.32;;;17.90;66.30;;;;;;4911691;29;45211;-72
2023/04/12 02:33:57;;;;;;;0.35;0.30;;;17.90;66.30;;;;;;4911516;29;45380;-72
2023/04/12 02:36:25;;;;;;;0.80;0.55;;;17.90;66.30;;;;;;4911387;29;46733;-72
2023/04/12 02:38:51;;;;;;;1.08;0.20;;;17.90;66.30;;;;;;4903185;29;45200;-72
2023/04/12 02:41:18;;;;;;;1.92;0.40;;;17.90;66.40;;;;;;4892626;29;45209;-72
2023/04/12 02:43:45;;;;;;;1.13;0.40;;;17.90;66.30;;;;;;4892738;29;45106;-72
2023/04/12 02:46:18;;;;;;;0.85;0.40;;;17.90;66.40;;;;;;4895145;29;46293;-72
2023/04/12 02:48:45;;;;;;;0.80;0.30;;;17.90;66.20;;;;;;4904008;29;45079;-72
2023/04/12 02:51:11;;;;;;;0.30;0.20;;;17.90;66.00;;;;;;4892513;29;45277;-72
2023/04/12 02:53:40;;;;;;;0.80;0.30;;;17.90;66.10;;;;;;4892583;29;45432;-72
2023/04/12 02:56:07;;;;;;;0.28;0.25;;;17.90;66.00;;;;;;4892128;29;46732;-72
2023/04/12 02:58:35;;;;;;;1.17;0.50;;;17.90;65.90;;;;;;4897944;29;45085;-72
2023/04/12 03:01:06;;;;;;;0.60;0.25;;;17.90;66.10;;;;;;4904012;29;45246;-72
2023/04/12 03:03:33;;;;;;;1.13;0.50;;;17.90;66.10;;;;;;4892412;29;45126;-72
2023/04/12 03:06:00;;;;;;;0.50;0.30;;;17.90;66.20;;;;;;4892125;29;45824;-72
2023/04/12 03:08:27;;;;;;;1.85;0.40;;;17.90;65.90;;;;;;4892094;29;45251;-72
2023/04/12 03:10:55;;;;;;;0.20;0.20;;;17.90;66.00;;;;;;4891954;29;45358;-72
2023/04/12 03:13:22;;;;;;;1.08;0.45;;;17.90;66.10;;;;;;4892197;29;45469;-72
2023/04/12 03:15:49;;;;;;;0.40;0.38;;;17.90;66.10;;;;;;4891611;29;47971;-72
2023/04/12 03:18:19;;;;;;;2.33;0.45;;;17.90;66.30;;;;;;4891712;29;45329;-72
2023/04/12 03:20:47;;;;;;;1.25;0.32;;;17.90;66.40;;;;;;4892276;29;45166;-72
2023/04/12 03:23:14;;;;;;;0.63;0.28;;;17.90;66.50;;;;;;4892067;29;45413;-72
2023/04/12 03:25:41;;;;;;;2.03;0.20;;;17.90;66.40;;;;;;4899597;29;47431;-72
2023/04/12 03:28:09;;;;;;;1.63;0.50;;;17.90;66.50;;;;;;4891479;29;45329;-73
2023/04/12 03:30:36;;;;;;;0.60;0.25;;;17.80;66.30;;;;;;4891840;29;45311;-72
2023/04/12 03:33:02;;;;;;;0.60;0.45;;;17.90;66.40;;;;;;4891658;29;45439;-72
2023/04/12 03:35:29;;;;;;;0.75;0.38;;;17.90;66.40;;;;;;4891639;29;47748;-72
2023/04/12 03:37:56;;;;;;;0.50;0.30;;;17.90;66.40;;;;;;4891565;29;45212;-72
2023/04/12 03:40:23;;;;;;;0.77;0.57;;;17.90;66.30;;;;;;4903915;29;45288;-72
2023/04/12 03:42:49;;;;;;;0.85;0.35;;;17.90;66.30;;;;;;4910539;29;45511;-72
2023/04/12 03:45:18;;;;;;;0.30;0.28;;;17.90;66.10;;;;;;4910413;29;45469;-73
2023/04/12 03:47:44;;;;;;;0.80;0.32;;;17.90;66.10;;;;;;4910435;29;45191;-72
2023/04/12 03:50:11;;;;;;;0.43;0.32;;;17.90;65.80;;;;;;4910685;29;45195;-72
2023/04/12 03:52:38;;;;;;;1.15;0.40;;;17.80;65.70;;;;;;4911130;29;45460;-72
2023/04/12 03:55:06;;;;;;;0.40;0.30;;;17.80;65.70;;;;;;4910317;29;46427;-72
2023/04/12 03:57:32;;;;;;;0.32;0.30;;;17.80;65.70;;;;;;4896433;29;45080;-72
2023/04/12 03:59:59;;;;;;;1.13;0.40;;;17.80;65.90;;;;;;4906961;29;45358;-72
2023/04/12 04:02:28;;;;;;;1.27;0.30;;;17.80;65.70;;;;;;4890866;29;45378;-72
2023/04/12 04:04:55;;;;;;;0.95;0.20;;;17.80;65.70;;;;;;4891112;29;48699;-72
2023/04/12 04:07:22;;;;;;;0.70;0.30;;;17.80;65.80;;;;;;4891245;29;45274;-72
2023/04/12 04:09:49;;;;;;;0.40;0.28;;;17.80;66.10;;;;;;4907058;29;45132;-72
2023/04/12 04:12:16;;;;;;;0.60;0.40;;;17.90;66.10;;;;;;4910516;29;45585;-72
2023/04/12 04:14:43;;;;;;;0.73;0.30;;;17.90;66.30;;;;;;4910219;29;45360;-72
2023/04/12 04:17:10;;;;;;;1.02;0.30;;;17.90;66.30;;;;;;4910073;29;45167;-72
2023/04/12 04:19:38;;;;;;;0.25;0.25;;;17.80;66.10;;;;;;4910204;29;45305;-72
2023/04/12 04:22:05;;;;;;;0.40;0.20;;;17.90;66.10;;;;;;4910248;29;45146;-72
2023/04/12 04:24:33;;;;;;;0.73;0.38;;;17.90;66.20;;;;;;4910000;29;45664;-72
2023/04/12 04:26:59;;;;;;;0.40;0.30;;;17.90;66.20;;;;;;4909755;29;45217;-72
2023/04/12 04:29:28;;;;;;;0.40;0.30;;;17.90;66.30;;;;;;4905185;29;45202;-72
2023/04/12 04:31:56;;;;;;;0.38;0.30;;;17.90;66.10;;;;;;4891154;29;45409;-72
2023/04/12 04:34:24;;;;;;;0.57;0.30;;;17.90;66.80;;;;;;4890885;29;45266;-72
2023/04/12 04:36:52;;;;;;;0.63;0.40;;;17.90;65.90;;;;;;4890598;29;45186;-73
2023/04/12 04:39:19;;;;;;;0.25;0.22;;;17.90;65.70;;;;;;4890601;29;45228;-73
2023/04/12 04:41:53;;;;;;;0.47;0.30;;;17.80;65.70;;;;;;4906213;29;45208;-72
2023/04/12 04:44:20;;;;;;;0.22;0.22;;;17.80;65.60;;;;;;4909421;29;46771;-70
2023/04/12 04:46:47;;;;;;;1.13;0.30;;;17.80;65.40;;;;;;4909259;29;45482;-72
2023/04/12 04:49:14;;;;;;;0.40;0.30;;;17.80;65.60;;;;;;4909767;29;45381;-72
2023/04/12 04:51:41;;;;;;;0.82;0.30;;;17.80;65.50;;;;;;4895010;29;45419;-72
2023/04/12 04:54:10;;;;;;;1.08;0.38;;;17.80;66.10;;;;;;4890448;29;47525;-72
2023/04/12 04:56:36;;;;;;;0.77;0.35;;;17.80;66.10;;;;;;4890894;29;45441;-72
2023/04/12 04:59:03;;;;;;;1.27;0.40;;;17.70;65.50;;;;;;4890464;29;45268;-72
2023/04/12 05:01:30;;;;;;;0.65;0.40;;;17.70;65.80;;;;;;4891047;29;45312;-72
2023/04/12 05:03:57;;;;;;;1.13;0.38;;;17.70;67.10;;;;;;4897800;29;46595;-72
2023/04/12 05:06:24;;;;;;;0.90;0.50;;;17.70;66.10;;;;;;4902191;29;45675;-72
2023/04/12 05:08:52;;;;;;;0.90;0.38;;;17.70;66.00;;;;;;4901515;29;45117;-72
2023/04/12 05:11:20;;;;;;;1.55;0.40;;;17.70;66.00;;;;;;4890226;29;45196;-72
2023/04/12 05:13:47;;;;;;;0.52;0.50;;;17.70;66.30;;;;;;4890069;29;45320;-72
2023/04/12 05:16:13;;;;;;;0.63;0.63;;;17.70;66.60;;;;;;4890492;29;45247;-73
2023/04/12 05:18:40;;;;;;;0.50;0.40;;;17.70;66.60;;;;;;4890482;29;45223;-73
2023/04/12 05:21:07;;;;;;;1.02;0.35;;;17.70;66.50;;;;;;4890299;29;45391;-72
2023/04/12 05:23:36;;;;;;;2.67;0.40;;;17.80;66.40;;;;;;4890060;29;47762;-72
2023/04/12 05:26:03;;;;;;;0.75;0.30;;;17.80;66.50;;;;;;4889373;29;45437;-73
2023/04/12 05:28:31;;;;;;;0.90;0.40;;;17.80;66.60;;;;;;4889011;29;45092;-72
2023/04/12 05:30:58;;;;;;;0.98;0.50;;;17.80;66.70;;;;;;4889135;29;45363;-72
2023/04/12 05:33:25;;;;;;;0.45;0.30;;;17.80;66.80;;;;;;4889521;29;46979;-73
2023/04/12 05:35:51;;;;;;;1.20;0.47;;;17.70;66.60;;;;;;4889624;29;45911;-73
2023/04/12 05:38:18;;;;;;;0.93;0.40;;;17.70;66.80;;;;;;4892000;29;45266;-74
2023/04/12 05:40:45;;;;;;;0.77;0.30;;;17.70;66.80;;;;;;4904335;29;45550;-72
2023/04/12 05:43:12;;;;;;;0.68;0.40;;;17.70;66.80;;;;;;4907630;29;48096;-73
2023/04/12 05:45:40;;;;;;;0.75;0.30;;;17.80;66.80;;;;;;4908332;29;45393;-72
2023/04/12 05:48:07;;;;;;;1.30;0.40;;;17.70;66.90;;;;;;4908976;29;45236;-72
2023/04/12 05:50:34;;;;;;;0.75;0.40;;;17.70;66.90;;;;;;4908735;29;45125;-72
2023/04/12 05:53:01;;;;;;;0.80;0.40;;;17.70;66.90;;;;;;4891206;29;47214;-72
2023/04/12 05:55:28;;;;;;;0.63;0.30;;;17.70;66.80;;;;;;4889464;29;45283;-71
2023/04/12 05:57:55;;;;;;;0.80;0.25;;;17.80;66.90;;;;;;4906013;29;45261;-72
2023/04/12 06:00:23;;;;;;;0.70;0.32;;;17.70;66.80;;;;;;4911485;29;45556;-72
2023/04/12 06:02:51;;;;;;;0.95;0.30;;;17.70;66.80;;;;;;4910909;29;48141;-72
2023/04/12 06:05:18;;;;;;;0.88;0.32;;;17.70;67.00;;;;;;4899963;29;45182;-72
2023/04/12 06:07:45;;;;;;;0.30;0.30;;;17.70;66.90;;;;;;4899764;29;45365;-72
2023/04/12 06:10:13;;;;;;;0.65;0.40;;;17.70;66.80;;;;;;4892395;29;45581;-72
2023/04/12 06:12:40;;;;;;;0.82;0.40;;;17.80;66.90;;;;;;4890482;29;48569;-72
2023/04/12 06:15:07;;;;;;;0.98;0.40;;;17.80;67.00;;;;;;4882427;29;45302;-72
2023/04/12 06:17:35;;;;;;;3.92;0.50;;;17.80;66.70;;;;;;4898550;29;45197;-72
2023/04/12 06:20:04;;;;;;;0.88;0.47;;;17.80;67.10;;;;;;4908594;29;45381;-72
2023/04/12 06:22:32;;;;;;;0.77;0.50;;;17.80;66.80;;;;;;4892277;29;45433;-72
2023/04/12 06:24:59;;;;;;;1.35;0.40;;;17.70;66.70;;;;;;4893587;29;45264;-72
2023/04/12 06:27:26;;;;;;;1.50;0.45;;;17.80;66.80;;;;;;4911459;29;45337;-73
2023/04/12 06:29:53;;;;;;;2.33;0.50;;;17.80;66.70;;;;;;4911148;29;45472;-72
2023/04/12 06:32:19;;;;;;;1.10;0.52;;;17.80;66.80;;;;;;4903877;29;46594;-72
2023/04/12 06:34:46;;;;;;;2.13;0.55;;;17.80;66.70;;;;;;4911107;29;45274;-72
2023/04/12 06:37:14;;;;;;;0.90;0.40;;;17.80;66.80;;;;;;4908244;29;45235;-72
2023/04/12 06:39:41;;;;;;;0.38;0.25;;;17.80;66.60;;;;;;4892027;29;45276;-72
2023/04/12 06:42:08;;;;;;;0.60;0.40;;;17.80;66.80;;;;;;4910004;29;46454;-72
2023/04/12 06:44:35;;;;;;;0.95;0.30;;;17.80;66.80;;;;;;4909103;29;45251;-72
2023/04/12 06:47:01;;;;;;;0.50;0.40;;;17.80;66.80;;;;;;4904119;29;45366;-72
2023/04/12 06:49:28;;;;;;;0.52;0.40;;;17.80;66.70;;;;;;4891963;29;45471;-72
2023/04/12 06:51:55;;;;;;;0.70;0.40;;;17.80;66.60;;;;;;4897146;29;46605;-72
2023/04/12 06:54:23;;;;;;;0.52;0.40;;;17.80;66.70;;;;;;4891894;29;45369;-72
2023/04/12 06:56:50;;;;;;;0.43;0.30;;;17.80;66.80;;;;;;4894623;29;45417;-72
2023/04/12 06:59:17;;;;;;;0.40;0.30;;;17.80;66.70;;;;;;4890943;29;45433;-72
2023/04/12 07:01:43;;;;;;;0.32;0.30;;;17.80;66.70;;;;;;4879696;29;47631;-72
2023/04/12 07:04:11;;;;;;;0.45;0.30;;;17.80;66.70;;;;;;4891920;29;45299;-72
2023/04/12 07:06:37;;;;;;;1.38;0.60;;;17.80;66.80;;;;;;4891834;29;45300;-72
2023/04/12 07:09:04;;;;;;;0.93;0.47;;;17.80;66.70;;;;;;4891384;29;45234;-72
2023/04/12 07:11:32;;;;;;;0.57;0.20;;;17.80;66.70;;;;;;4891238;29;47441;-72
2023/04/12 07:13:59;;;;;;;1.27;0.30;;;17.80;66.70;;;;;;4891899;29;45255;-72
2023/04/12 07:16:26;;;;;;;1.05;0.50;;;17.80;66.50;;;;;;4891739;29;45258;-72
2023/04/12 07:18:53;;;;;;;0.40;0.40;;;17.80;66.60;;;;;;4900169;29;45561;-72
2023/04/12 07:21:19;;;;;;;0.90;0.30;;;17.80;66.60;;;;;;4905016;29;46087;-72
2023/04/12 07:23:49;;;;;;;1.00;0.40;;;17.80;66.70;;;;;;4902611;29;45217;-71
2023/04/12 07:26:16;;;;;;;1.15;0.45;;;17.90;66.80;;;;;;4879350;29;45260;-71
2023/04/12 07:28:44;;;;;;;0.95;0.40;;;17.80;67.60;;;;;;4910364;29;45203;-72
2023/04/12 07:31:11;;;;;;;1.08;0.43;;;17.80;66.30;;;;;;4899096;29;47239;-72
2023/04/12 07:33:38;;;;;;;0.77;0.50;;;17.70;66.00;;;;;;4897092;29;45364;-71
2023/04/12 07:36:05;;;;;;;0.65;0.47;;;17.70;66.00;;;;;;4892631;29;45508;-72
2023/04/12 07:38:32;;;;;;;2.15;0.50;;;17.70;66.00;;;;;;4891297;29;45204;-72
2023/04/12 07:40:59;;;;;;;0.77;0.38;;;17.70;65.90;;;;;;4890636;29;47532;-72
2023/04/12 07:43:26;;;;;;;0.45;0.30;;;17.70;65.70;;;;;;4895769;29;45481;-72
2023/04/12 07:45:55;;;;;;;1.27;0.40;;;17.70;65.90;;;;;;4910219;29;45135;-72
2023/04/12 07:48:22;;;;;;;0.60;0.50;;;17.80;65.70;;;;;;4905979;29;45304;-72
2023/04/12 07:50:49;;;;;;;1.17;0.50;;;17.70;65.60;;;;;;4890790;29;47423;-72
2023/04/12 07:53:21;;;;;;;0.73;0.52;;;17.80;65.70;;;;;;4875543;29;45239;-72
2023/04/12 07:55:48;;;;;;;0.30;0.30;;;17.80;65.70;;;;;;4891385;29;45235;-72
2023/04/12 07:58:15;;;;;;;0.40;0.32;;;17.80;65.90;;;;;;4891562;29;45133;-72
2023/04/12 08:00:42;;;;;;;0.50;0.30;;;17.80;65.90;;;;;;4898262;29;45481;-72
2023/04/12 08:03:12;;;;;;;0.20;0.20;;;17.80;66.00;;;;;;4909681;29;45307;-72
2023/04/12 08:05:39;;;;;;;0.50;0.40;;;17.80;66.20;;;;;;4895578;29;45240;-72
2023/04/12 08:08:08;;;;;;;0.40;0.40;;;17.80;66.20;;;;;;4891153;29;45309;-72
2023/04/12 08:10:35;;;;;;;0.30;0.30;;;17.80;66.40;;;;;;4891011;29;46553;-73
2023/04/12 08:13:02;;;;;;;0.30;0.30;;;17.80;66.50;;;;;;4891046;29;45195;-72
2023/04/12 08:15:29;;;;;;;0.70;0.40;;;17.80;66.70;;;;;;4912425;29;45259;-72
2023/04/12 08:17:56;;;;;;;0.85;0.30;;;17.80;66.90;;;;;;4909857;29;45365;-72
2023/04/12 08:20:24;;;;;;;2.78;0.82;;;17.80;67.00;;;;;;4909453;29;45207;-72
2023/04/12 08:22:53;;;;;;;0.43;0.40;;;17.80;67.10;;;;;;4908243;29;45273;-72
2023/04/12 08:25:20;;;;;;;0.30;0.22;;;17.80;67.20;;;;;;4909704;29;45216;-72
2023/04/12 08:27:50;;;;;;;1.20;0.50;;;17.80;67.30;;;;;;4909940;29;45204;-72
2023/04/12 08:30:17;;;;;;;0.30;0.20;;;17.80;67.30;;;;;;4875541;29;48505;-72
2023/04/12 08:32:44;;;;;;;0.25;0.22;;;17.80;67.30;;;;;;4890105;29;45910;-72
2023/04/12 08:35:11;;;;;;;0.40;0.40;;;17.80;67.40;;;;;;4890734;29;45129;-72
2023/04/12 08:37:39;;;;;;;0.50;0.35;;;17.80;67.40;;;;;;4890687;29;45294;-72
2023/04/12 08:40:08;;;;;;;0.55;0.40;;;17.90;67.60;;;;;;4902975;29;47510;-72
2023/04/12 08:42:35;;;;;;;0.60;0.47;;;17.80;67.50;;;;;;4909438;29;46306;-72
2023/04/12 08:45:05;;;;;;;0.35;0.30;;;17.90;67.70;;;;;;4892063;29;45276;-72
2023/04/12 08:47:32;;;;;;;0.20;0.20;;;17.80;67.60;;;;;;4890531;29;45228;-72
2023/04/12 08:50:00;;;;;;;2.05;0.40;;;17.90;67.70;;;;;;4907015;29;45241;-72
2023/04/12 08:52:28;;;;;;;0.50;0.35;;;17.90;67.70;;;;;;4896221;29;45178;-72
2023/04/12 08:54:56;;;;;;;0.30;0.30;;;17.80;67.70;;;;;;4890430;29;45276;-72
2023/04/12 08:57:23;;;;;;;0.40;0.40;;;17.90;67.70;;;;;;4890217;29;45424;-72
2023/04/12 08:59:52;;;;;;;1.02;0.40;;;17.90;67.80;;;;;;4897745;29;45226;-72
2023/04/12 09:02:19;;;;;;;0.80;0.50;;;17.90;67.80;;;;;;4908466;29;45655;-72
2023/04/12 09:04:49;;;;;;;0.50;0.40;;;17.90;67.80;;;;;;4909377;29;45259;-72
2023/04/12 09:07:16;;;;;;;0.55;0.32;;;17.90;67.80;;;;;;4909302;29;45136;-71
2023/04/12 09:09:44;;;;;;;0.63;0.30;;;17.90;67.90;;;;;;4908979;29;47143;-72
2023/04/12 09:12:14;;;;;;;1.85;0.60;;;17.90;68.10;;;;;;4900779;29;45466;-72
2023/04/12 09:14:42;;;;;;;0.55;0.30;;;17.90;68.10;;;;;;4908816;29;45255;-72
2023/04/12 09:17:22;;;;;;;0.68;0.20;;;17.90;68.20;;;;;;4898625;29;45389;-72
2023/04/12 09:19:49;;;;;;;0.65;0.40;;;17.90;68.10;;;;;;4889774;29;47323;-72
2023/04/12 09:22:15;;;;;;;1.63;0.40;;;17.90;68.10;;;;;;4901069;29;45416;-72
2023/04/12 09:24:52;;;;;;;0.30;0.13;;;17.90;69.20;;;;;;4908323;29;45432;-72
2023/04/12 09:27:20;;;;;;;1.27;0.40;;;17.90;68.20;;;;;;4904860;29;45345;-72
2023/04/12 09:29:50;;;;;;;0.95;0.40;;;17.90;68.30;;;;;;4889817;29;47326;-72
2023/04/12 09:32:25;;;;;;;0.55;0.25;;;17.90;68.30;;;;;;4897365;29;45201;-72
2023/04/12 09:34:56;;;;;;;0.75;0.35;;;17.90;68.40;;;;;;4908906;29;45195;-72
2023/04/12 09:37:23;;;;;;;0.10;0.10;;;17.90;68.40;;;;;;4896946;29;45223;-72
2023/04/12 09:40:00;;;;;;;0.22;0.20;;;17.90;68.40;;;;;;4889553;29;45282;-72
2023/04/12 09:42:28;;;;;;;0.70;0.30;;;17.90;68.50;;;;;;4894771;29;45256;-72
2023/04/12 09:44:55;;;;;;;0.38;0.28;;;17.90;68.50;;;;;;4904505;29;45236;-72
2023/04/12 09:47:23;;;;;;;0.10;0.10;;;17.90;68.50;;;;;;4889892;29;45194;-72
2023/04/12 09:49:50;;;;;;;0.90;0.20;;;17.90;68.50;;;;;;4897495;29;46559;-72
2023/04/12 09:52:17;;;;;;;0.50;0.30;;;17.90;68.70;;;;;;4904937;29;45289;-72
2023/04/12 09:54:46;;;;;;;0.20;0.20;;;17.90;68.70;;;;;;4889651;29;45244;-72
2023/04/12 09:57:13;;;;;;;0.55;0.25;;;17.90;68.90;;;;;;4889454;29;45652;-72
2023/04/12 09:59:42;;;;;;;1.27;0.20;;;17.90;68.90;;;;;;4894582;29;47983;-71
2023/04/12 10:02:14;;;;;;;0.65;0.30;;;17.90;68.80;;;;;;4891037;29;45293;-72
2023/04/12 10:04:42;;;;;;;0.20;0.20;;;17.90;68.80;;;;;;4900678;29;45348;-72
2023/04/12 10:07:09;;;;;;;0.47;0.25;;;17.90;68.80;;;;;;4889397;29;45448;-72
2023/04/12 10:09:38;;;;;;;0.25;0.20;;;17.90;68.80;;;;;;4889407;29;49382;-72
2023/04/12 10:12:06;;;;;;;0.20;0.20;;;17.90;68.70;;;;;;4889481;29;45407;-72
2023/04/12 10:14:33;;;;;;;0.38;0.20;;;17.90;68.70;;;;;;4902568;29;45198;-72
2023/04/12 10:17:03;;;;;;;0.30;0.20;;;17.90;68.60;;;;;;4900303;29;45218;-72
2023/04/12 10:19:32;;;;;;;0.10;0.10;;;17.90;68.70;;;;;;4907892;29;45432;-72
2023/04/12 10:22:00;;;;;;;0.50;0.30;;;17.90;68.70;;;;;;4907670;29;46136;-72
2023/04/12 10:24:28;;;;;;;0.55;0.40;;;17.90;68.60;;;;;;4901628;29;45244;-72
2023/04/12 10:26:59;;;;;;;0.20;0.20;;;17.90;68.50;;;;;;4907250;29;45326;-72
2023/04/12 10:29:27;;;;;;;0.63;0.22;;;17.90;68.50;;;;;;4889062;29;45477;-72
2023/04/12 10:31:54;;;;;;;0.80;0.20;;;17.90;68.50;;;;;;4897149;29;45381;-72
2023/04/12 10:34:27;;;;;;;1.05;0.35;;;17.90;68.50;;;;;;4903974;29;45083;-72
2023/04/12 10:36:56;;;;;;;0.30;0.30;;;17.90;69.40;;;;;;4889349;29;45267;-72
2023/04/12 10:39:37;;;;;;;1.70;0.57;;;17.90;68.40;;;;;;4888924;29;47059;-72
2023/04/12 10:42:22;;;;;;;0.60;0.40;;;17.90;68.30;;;;;;4890480;29;45243;-72
2023/04/12 10:44:50;;;;;;;0.50;0.43;;;17.90;68.30;;;;;;4884758;29;45417;-72
2023/04/12 10:48:00;;;;;;;0.73;0.40;;;17.90;68.30;;;;;;4898321;29;45646;-72
2023/04/12 10:50:30;;;;;;;0.52;0.40;;;17.90;68.30;;;;;;4874556;29;47037;-72
2023/04/12 10:53:23;;;;;;;0.80;0.50;;;17.90;68.00;;;;;;4874053;29;45169;-72
2023/04/12 10:55:51;;;;;;;1.05;0.68;;;17.90;68.00;;;;;;4873127;29;45393;-72
2023/04/12 10:58:55;;;;;;;1.48;0.80;;;17.80;68.00;;;;;;4877000;29;45185;-72
2023/04/12 11:01:22;;;;;;;0.70;0.40;;;17.90;68.20;;;;;;4873050;29;47409;-72
2023/04/12 11:04:09;;;;;;;1.08;0.50;;;17.90;68.20;;;;;;4903843;29;45358;-72
2023/04/12 11:06:58;;;;;;;1.20;0.70;;;17.90;68.20;;;;;;4911008;29;45485;-72
2023/04/12 11:09:27;;;;;;;0.63;0.47;;;17.90;68.20;;;;;;4911115;29;45339;-72
2023/04/12 11:11:58;;;;;;;0.40;0.40;;;17.90;68.30;;;;;;4910108;29;46490;-72
2023/04/12 11:14:31;;;;;;;0.55;0.52;;;17.90;68.20;;;;;;4891866;29;45226;-72
2023/04/12 11:17:22;;;;;;;0.73;0.60;;;17.90;68.30;;;;;;4908492;29;45360;-72
2023/04/12 11:20:00;;;;;;;0.55;0.55;;;18.00;68.40;;;;;;4902559;29;45324;-72
2023/04/12 11:22:31;;;;;;;1.08;0.73;;;17.90;68.20;;;;;;4910489;29;45409;-72
2023/04/12 11:24:59;;;;;;;0.85;0.55;;;17.90;68.30;;;;;;4910427;29;45633;-72
2023/04/12 11:27:27;;;;;;;0.68;0.50;;;17.90;68.20;;;;;;4910659;29;45340;-72
2023/04/12 11:29:56;;;;;;;0.60;0.57;;;17.90;68.20;;;;;;4894378;29;45378;-72
2023/04/12 11:32:25;;;;;;;1.20;0.65;;;17.90;68.10;;;;;;4891607;29;47013;-72
2023/04/12 11:34:54;;;;;;;0.63;0.40;;;17.90;68.10;;;;;;4907404;29;45313;-72
2023/04/12 11:37:22;;;;;;;2.25;0.57;;;17.90;68.00;;;;;;4904734;29;45245;-72
2023/04/12 11:39:52;;;;;;;0.57;0.57;;;17.90;67.90;;;;;;4901254;29;45404;-72
2023/04/12 11:42:20;;;;;;;0.77;0.50;;;17.90;67.80;;;;;;4895107;29;46545;-72
2023/04/12 11:44:47;;;;;;;0.50;0.43;;;17.90;67.90;;;;;;4897253;29;46299;-72
2023/04/12 11:47:16;;;;;;;0.80;0.47;;;17.90;67.80;;;;;;4898600;29;45429;-72
2023/04/12 11:49:48;;;;;;;0.80;0.50;;;17.90;67.80;;;;;;4891093;29;45221;-72
2023/04/12 11:52:16;;;;;;;1.05;0.50;;;17.90;67.80;;;;;;4872462;29;48672;-73
2023/04/12 11:54:45;;;;;;;0.52;0.50;;;17.90;68.00;;;;;;4872538;29;45287;-72
2023/04/12 11:57:14;;;;;;;0.88;0.40;;;17.90;68.00;;;;;;4871411;29;45225;-72
2023/04/12 11:59:44;;;;;;;0.32;0.30;;;17.90;67.90;;;;;;4872446;29;45558;-72
2023/04/12 12:02:12;;;;;;;0.65;0.43;;;17.90;68.00;;;;;;4877339;29;46458;-72
2023/04/12 12:04:40;;;;;;;1.52;0.50;;;17.90;67.80;;;;;;4909916;29;45365;-72
2023/04/12 12:07:07;;;;;;;0.47;0.45;;;17.90;67.90;;;;;;4892418;29;45282;-72
2023/04/12 12:09:35;;;;;;;1.58;0.77;;;17.90;67.90;;;;;;4891371;29;45474;-72
2023/04/12 12:12:02;;;;;;;0.77;0.50;;;17.90;67.80;;;;;;4890689;29;46671;-72
2023/04/12 12:14:34;;;;;;;0.65;0.43;;;18.00;67.80;;;;;;4891024;29;45158;-72
2023/04/12 12:17:01;;;;;;;0.50;0.50;;;17.90;67.80;;;;;;4890973;29;45225;-72
2023/04/12 12:19:32;;;;;;;1.33;0.40;;;18.00;67.80;;;;;;4891133;29;45350;-72
2023/04/12 12:22:13;;;;;;;2.22;0.60;;;17.90;67.60;;;;;;4899374;29;45396;-72
2023/04/12 12:24:45;;;;;;;1.70;0.60;;;17.90;67.50;;;;;;4909917;28;45130;-72
2023/04/12 12:27:12;;;;;;;1.50;0.40;;;18.00;67.70;;;;;;4909658;29;45370;-72
2023/04/12 12:29:40;;;;;;;0.47;0.38;;;17.90;67.40;;;;;;4909846;29;45561;-72
2023/04/12 12:32:12;;;;;;;1.92;0.57;;;18.00;67.20;;;;;;4909598;29;47408;-72
2023/04/12 12:34:40;;;;;;;1.63;0.43;;;17.90;67.30;;;;;;4895747;29;45184;-72
2023/04/12 12:37:13;;;;;;;1.73;0.57;;;18.00;68.50;;;;;;4910602;29;45283;-72
2023/04/12 12:39:39;;;;;;;0.47;0.38;;;17.90;67.50;;;;;;4909118;29;45444;-72
2023/04/12 12:42:06;;;;;;;2.15;0.50;;;17.90;67.50;;;;;;4891285;29;46544;-72
2023/04/12 12:44:33;;;;;;;2.00;0.60;;;17.90;67.50;;;;;;4896037;29;45235;-72
2023/04/12 12:47:02;;;;;;;1.08;0.47;;;17.90;67.50;;;;;;4909440;29;45285;-72
2023/04/12 12:49:29;;;;;;;1.25;0.70;;;17.90;67.50;;;;;;4909785;29;45727;-72
2023/04/12 12:51:56;;;;;;;0.55;0.40;;;17.90;67.60;;;;;;4909298;29;47301;-72
2023/04/12 12:54:23;;;;;;;1.05;0.40;;;17.90;67.50;;;;;;4909152;29;45391;-72
2023/04/12 12:56:50;;;;;;;1.08;0.63;;;17.90;67.50;;;;;;4909555;29;45199;-72